createdAt,value
2019-03-10T00:00:36.814Z,75.50
2019-03-10T00:03:07.673Z,75.50
2019-03-10T00:05:40.078Z,75.50
2019-03-10T00:08:10.838Z,75.60
2019-03-10T00:10:41.625Z,75.50
2019-03-10T00:13:12.167Z,75.60
2019-03-10T00:15:42.902Z,75.70
2019-03-10T00:18:14.547Z,75.70
2019-03-10T00:20:45.535Z,75.60
2019-03-10T00:23:16.217Z,75.60
2019-03-10T00:25:46.888Z,75.60
2019-03-10T00:28:18.402Z,75.90
2019-03-10T00:30:49.088Z,75.80
2019-03-10T00:33:19.740Z,75.90
2019-03-10T00:35:50.509Z,75.90
2019-03-10T00:38:21.208Z,75.90
2019-03-10T00:41:30.858Z,75.90
2019-03-10T00:44:27.929Z,76.00
2019-03-10T00:47:28.979Z,75.90
2019-03-10T00:50:47.527Z,75.80
2019-03-10T00:53:20.075Z,75.80
2019-03-10T00:55:50.700Z,75.70
2019-03-10T00:58:21.769Z,75.80
2019-03-10T01:00:52.362Z,75.80
2019-03-10T01:03:23.057Z,75.70
2019-03-10T01:05:53.641Z,75.70
2019-03-10T01:08:24.489Z,75.70
2019-03-10T01:10:55.328Z,75.60
2019-03-10T01:13:26.291Z,75.60
2019-03-10T01:15:57.584Z,75.70
2019-03-10T01:18:28.253Z,75.70
2019-03-10T01:21:02.165Z,75.50
2019-03-10T01:23:34.848Z,75.60
2019-03-10T01:26:05.443Z,75.60
2019-03-10T01:28:36.198Z,75.70
2019-03-10T01:31:21.673Z,75.70
2019-03-10T01:34:29.509Z,75.70
2019-03-10T01:37:00.126Z,75.70
2019-03-10T01:39:30.785Z,75.80
2019-03-10T01:42:01.683Z,75.80
2019-03-10T01:44:32.778Z,75.70
2019-03-10T01:47:03.405Z,75.90
2019-03-10T01:49:34.011Z,75.60
2019-03-10T01:52:04.685Z,75.60
2019-03-10T01:54:35.323Z,75.50
2019-03-10T01:57:05.952Z,75.50
2019-03-10T01:59:36.552Z,75.50
2019-03-10T02:02:07.131Z,75.40
2019-03-10T02:04:37.837Z,75.40
2019-03-10T02:07:09.599Z,75.40
2019-03-10T02:09:40.136Z,76.20
2019-03-10T02:12:10.804Z,75.30
2019-03-10T02:14:41.970Z,75.40
2019-03-10T02:17:12.561Z,76.20
2019-03-10T02:19:43.340Z,75.20
2019-03-10T02:22:13.970Z,75.20
2019-03-10T02:24:44.627Z,75.20
2019-03-10T02:27:15.566Z,75.20
2019-03-10T02:29:46.543Z,75.20
2019-03-10T02:32:17.246Z,75.20
2019-03-10T02:34:48.196Z,75.30
2019-03-10T02:37:20.143Z,75.20
2019-03-10T02:39:50.819Z,75.20
2019-03-10T02:42:21.643Z,75.20
2019-03-10T02:44:52.727Z,75.20
2019-03-10T02:47:23.427Z,75.10
2019-03-10T02:49:54.073Z,75.10
2019-03-10T02:52:24.779Z,75.10
2019-03-10T02:54:55.441Z,75.10
2019-03-10T02:57:26.430Z,75.10
2019-03-10T02:59:57.055Z,75.20
2019-03-10T03:02:27.712Z,75.30
2019-03-10T03:04:58.341Z,75.40
2019-03-10T03:07:28.992Z,75.60
2019-03-10T03:09:59.722Z,75.70
2019-03-10T03:12:30.459Z,76.20
2019-03-10T03:15:01.117Z,76.70
2019-03-10T03:17:33.501Z,76.60
2019-03-10T03:20:04.673Z,76.00
2019-03-10T03:22:35.433Z,76.20
2019-03-10T03:25:07.034Z,76.10
2019-03-10T03:27:37.723Z,76.20
2019-03-10T03:30:09.163Z,76.20
2019-03-10T03:32:39.936Z,77.10
2019-03-10T03:35:48.576Z,76.30
2019-03-10T03:38:22.426Z,76.20
2019-03-10T03:40:59.596Z,76.00
2019-03-10T03:43:30.334Z,76.10
2019-03-10T03:46:00.978Z,76.10
2019-03-10T03:48:31.766Z,76.20
2019-03-10T03:51:02.511Z,76.20
2019-03-10T03:53:33.198Z,76.20
2019-03-10T03:56:04.066Z,76.20
2019-03-10T03:58:34.608Z,76.30
2019-03-10T04:01:11.959Z,76.20
2019-03-10T04:03:42.866Z,76.20
2019-03-10T04:06:13.495Z,76.30
2019-03-10T04:08:44.141Z,76.20
2019-03-10T04:11:14.880Z,76.20
2019-03-10T04:13:45.662Z,76.20
2019-03-10T04:16:16.311Z,76.30
2019-03-10T04:18:47.028Z,76.20
2019-03-10T04:21:17.669Z,76.40
2019-03-10T04:23:48.407Z,76.40
2019-03-10T04:26:19.132Z,76.40
2019-03-10T04:28:50.096Z,76.50
2019-03-10T04:31:20.775Z,76.60
2019-03-10T04:33:51.339Z,76.60
2019-03-10T04:36:22.245Z,76.70
2019-03-10T04:38:52.912Z,76.60
2019-03-10T04:41:23.530Z,76.70
2019-03-10T04:43:54.375Z,76.70
2019-03-10T04:46:25.063Z,76.70
2019-03-10T04:48:56.951Z,76.70
2019-03-10T04:51:27.637Z,76.70
2019-03-10T04:53:58.509Z,76.70
2019-03-10T04:56:34.130Z,76.80
2019-03-10T04:59:04.903Z,76.90
2019-03-10T05:01:35.560Z,77.00
2019-03-10T05:04:06.346Z,76.80
2019-03-10T05:06:37.007Z,76.80
2019-03-10T05:09:10.597Z,76.90
2019-03-10T05:11:41.541Z,76.90
2019-03-10T05:14:13.955Z,76.90
2019-03-10T05:16:44.704Z,76.80
2019-03-10T05:19:15.406Z,76.70
2019-03-10T05:21:46.016Z,76.70
2019-03-10T05:24:16.905Z,77.10
2019-03-10T05:26:47.952Z,76.60
2019-03-10T05:29:18.869Z,76.60
2019-03-10T05:31:49.557Z,76.60
2019-03-10T05:34:20.235Z,76.70
2019-03-10T05:36:50.797Z,76.70
2019-03-10T05:39:21.381Z,76.80
2019-03-10T05:41:51.958Z,77.00
2019-03-10T05:44:23.149Z,77.00
2019-03-10T05:46:54.113Z,77.40
2019-03-10T05:49:24.808Z,77.70
2019-03-10T05:51:55.350Z,78.00
2019-03-10T05:54:26.077Z,78.30
2019-03-10T05:56:56.758Z,78.40
2019-03-10T05:59:27.407Z,78.50
2019-03-10T06:01:58.085Z,78.60
2019-03-10T06:04:28.837Z,78.80
2019-03-10T06:06:59.488Z,78.90
2019-03-10T06:09:30.015Z,79.10
2019-03-10T06:12:00.561Z,79.30
2019-03-10T06:14:31.240Z,79.70
2019-03-10T06:17:21.626Z,79.80
2019-03-10T06:19:52.381Z,80.00
2019-03-10T06:22:22.989Z,80.00
2019-03-10T06:24:53.625Z,80.10
2019-03-10T06:27:24.317Z,80.20
2019-03-10T06:29:55.086Z,80.30
2019-03-10T06:32:25.724Z,80.30
2019-03-10T06:34:56.268Z,80.30
2019-03-10T06:37:26.989Z,80.40
2019-03-10T06:39:57.734Z,80.50
2019-03-10T06:42:28.885Z,80.60
2019-03-10T06:44:59.730Z,80.60
2019-03-10T06:47:30.380Z,80.60
2019-03-10T06:50:01.063Z,80.60
2019-03-10T06:52:31.657Z,80.70
2019-03-10T06:55:02.353Z,80.70
2019-03-10T06:57:34.300Z,80.70
2019-03-10T07:00:05.616Z,80.70
2019-03-10T07:02:36.238Z,80.70
2019-03-10T07:05:08.522Z,81.10
2019-03-10T07:07:39.238Z,81.00
2019-03-10T07:10:12.267Z,81.00
2019-03-10T07:12:43.986Z,81.10
2019-03-10T07:15:14.919Z,81.20
2019-03-10T07:17:45.696Z,81.20
2019-03-10T07:20:17.199Z,81.30
2019-03-10T07:22:47.933Z,81.40
2019-03-10T07:25:18.517Z,81.50
2019-03-10T07:28:14.106Z,81.60
2019-03-10T07:31:10.251Z,81.90
2019-03-10T07:33:57.407Z,82.00
2019-03-10T07:36:59.242Z,81.90
2019-03-10T07:39:51.888Z,82.00
2019-03-10T07:42:44.231Z,81.90
2019-03-10T07:45:36.664Z,81.90
2019-03-10T07:48:24.817Z,82.10
2019-03-10T07:51:26.524Z,82.20
2019-03-10T07:54:16.271Z,82.20
2019-03-10T07:57:04.878Z,82.40
2019-03-10T07:59:54.439Z,82.50
2019-03-10T08:02:39.639Z,82.50
2019-03-10T08:05:35.574Z,82.60
2019-03-10T08:08:13.324Z,82.70
2019-03-10T08:11:01.844Z,83.00
2019-03-10T08:14:00.419Z,83.10
2019-03-10T08:16:47.339Z,83.00
2019-03-10T08:19:36.943Z,83.10
2019-03-10T08:22:29.585Z,83.00
2019-03-10T08:25:18.414Z,83.10
2019-03-10T08:28:08.744Z,83.10
2019-03-10T08:31:07.679Z,83.00
2019-03-10T08:34:04.973Z,83.00
2019-03-10T08:36:44.107Z,83.10
2019-03-10T08:39:37.663Z,83.10
2019-03-10T08:42:25.706Z,83.10
2019-03-10T08:45:16.841Z,83.00
2019-03-10T08:48:06.618Z,83.00
2019-03-10T08:50:56.284Z,82.90
2019-03-10T08:53:48.735Z,83.30
2019-03-10T08:56:33.547Z,83.30
2019-03-10T08:59:17.999Z,83.50
2019-03-10T09:02:16.700Z,83.40
2019-03-10T09:05:12.184Z,83.30
2019-03-10T09:07:58.295Z,83.10
2019-03-10T09:10:46.232Z,83.40
2019-03-10T09:13:35.822Z,83.70
2019-03-10T09:16:23.332Z,82.90
2019-03-10T09:19:02.353Z,83.00
2019-03-10T09:22:00.163Z,83.60
2019-03-10T09:24:55.697Z,82.90
2019-03-10T09:27:42.793Z,82.50
2019-03-10T09:30:41.508Z,82.40
2019-03-10T09:33:31.145Z,82.10
2019-03-10T09:36:39.331Z,82.00
2019-03-10T09:39:38.164Z,82.00
2019-03-10T09:42:27.799Z,81.90
2019-03-10T09:45:16.330Z,81.80
2019-03-10T09:47:59.448Z,81.60
2019-03-10T09:50:49.045Z,81.30
2019-03-10T09:53:36.530Z,81.20
2019-03-10T09:56:16.878Z,81.10
2019-03-10T09:59:21.611Z,80.50
2019-03-10T10:02:00.940Z,81.00
2019-03-10T10:04:49.447Z,80.90
2019-03-10T10:07:34.712Z,80.90
2019-03-10T10:10:24.183Z,80.90
2019-03-10T10:13:01.136Z,81.00
2019-03-10T10:15:57.043Z,81.20
2019-03-10T10:18:44.332Z,81.10
2019-03-10T10:21:30.678Z,80.60
2019-03-10T10:24:07.679Z,80.20
2019-03-10T10:26:47.510Z,79.70
2019-03-10T10:29:56.445Z,79.30
2019-03-10T10:32:53.523Z,79.40
2019-03-10T10:35:45.921Z,79.70
2019-03-10T10:38:34.591Z,79.40
2019-03-10T10:41:30.850Z,79.10
2019-03-10T10:44:20.614Z,78.90
2019-03-10T10:47:00.419Z,78.90
2019-03-10T10:49:48.669Z,78.90
2019-03-10T10:52:37.124Z,78.70
2019-03-10T10:55:15.351Z,78.50
2019-03-10T10:57:57.076Z,78.30
2019-03-10T11:01:04.853Z,78.40
2019-03-10T11:03:45.427Z,78.80
2019-03-10T11:06:29.858Z,79.00
2019-03-10T11:09:19.140Z,79.00
2019-03-10T11:12:02.175Z,78.50
2019-03-10T11:14:40.841Z,77.70
2019-03-10T11:17:33.589Z,76.80
2019-03-10T11:20:25.423Z,76.40
2019-03-10T11:23:03.773Z,75.60
2019-03-10T11:25:40.010Z,75.70
2019-03-10T11:28:28.317Z,75.40
2019-03-10T11:31:10.667Z,74.70
2019-03-10T11:34:03.268Z,73.40
2019-03-10T11:36:44.081Z,72.90
2019-03-10T11:39:36.720Z,74.30
2019-03-10T11:42:25.094Z,73.40
2019-03-10T11:45:10.090Z,72.50
2019-03-10T11:47:48.356Z,72.20
2019-03-10T11:50:25.037Z,72.80
2019-03-10T11:53:19.538Z,71.20
2019-03-10T11:56:05.143Z,71.60
2019-03-10T11:58:57.856Z,70.90
2019-03-10T12:01:46.646Z,71.00
2019-03-10T12:04:26.942Z,71.50
2019-03-10T12:07:03.557Z,70.40
2019-03-10T12:09:34.429Z,68.40
2019-03-10T12:12:05.304Z,69.30
2019-03-10T12:14:35.987Z,69.40
2019-03-10T12:17:06.722Z,69.20
2019-03-10T12:19:37.461Z,67.70
2019-03-10T12:22:08.168Z,68.10
2019-03-10T12:24:38.892Z,68.00
2019-03-10T12:27:09.478Z,68.40
2019-03-10T12:29:40.058Z,68.50
2019-03-10T12:32:10.767Z,68.40
2019-03-10T12:34:41.551Z,67.50
2019-03-10T12:37:12.307Z,68.30
2019-03-10T12:39:42.957Z,68.00
2019-03-10T12:42:13.551Z,68.30
2019-03-10T12:44:44.207Z,68.40
2019-03-10T12:47:14.882Z,69.60
2019-03-10T12:49:45.616Z,69.00
2019-03-10T12:52:16.312Z,69.20
2019-03-10T12:54:48.466Z,69.40
2019-03-10T12:57:19.123Z,69.40
2019-03-10T12:59:49.942Z,69.60
2019-03-10T13:02:20.697Z,69.00
2019-03-10T13:04:51.959Z,68.70
2019-03-10T13:07:22.776Z,68.40
2019-03-10T13:09:53.435Z,68.40
2019-03-10T13:12:24.176Z,67.60
2019-03-10T13:14:59.231Z,67.10
2019-03-10T13:17:27.188Z,67.40
2019-03-10T13:19:57.916Z,66.60
2019-03-10T13:22:28.574Z,66.40
2019-03-10T13:24:59.333Z,66.40
2019-03-10T13:27:30.967Z,66.50
2019-03-10T13:30:02.228Z,66.70
2019-03-10T13:32:33.234Z,66.10
2019-03-10T13:35:04.255Z,65.70
2019-03-10T13:37:34.886Z,66.00
2019-03-10T13:40:06.446Z,66.90
2019-03-10T13:42:37.214Z,67.10
2019-03-10T13:45:09.721Z,67.70
2019-03-10T13:47:40.322Z,67.80
2019-03-10T13:50:12.750Z,67.50
2019-03-10T13:52:43.318Z,67.20
2019-03-10T13:55:15.139Z,66.30
2019-03-10T13:57:45.867Z,66.20
2019-03-10T14:00:19.050Z,66.50
2019-03-10T14:02:49.684Z,66.70
2019-03-10T14:05:20.400Z,66.70
2019-03-10T14:08:10.179Z,66.60
2019-03-10T14:10:40.830Z,66.60
2019-03-10T14:13:11.499Z,66.80
2019-03-10T14:15:44.349Z,67.00
2019-03-10T14:18:14.852Z,67.40
2019-03-10T14:20:45.559Z,66.80
2019-03-10T14:23:16.289Z,67.30
2019-03-10T14:25:47.037Z,67.70
2019-03-10T14:28:17.616Z,67.80
2019-03-10T14:30:48.348Z,68.20
2019-03-10T14:33:20.446Z,68.30
2019-03-10T14:35:51.249Z,68.40
2019-03-10T14:38:21.965Z,68.50
2019-03-10T14:40:52.762Z,68.40
2019-03-10T14:43:23.536Z,68.40
2019-03-10T14:45:54.315Z,68.30
2019-03-10T14:48:25.068Z,67.70
2019-03-10T14:50:55.786Z,67.70
2019-03-10T14:53:26.371Z,67.50
2019-03-10T14:55:57.100Z,67.60
2019-03-10T14:58:27.734Z,67.60
2019-03-10T15:00:58.293Z,67.20
2019-03-10T15:03:29.071Z,67.20
2019-03-10T15:05:59.637Z,67.20
2019-03-10T15:08:30.536Z,66.60
2019-03-10T15:11:01.265Z,66.20
2019-03-10T15:13:32.167Z,65.30
2019-03-10T15:16:03.144Z,65.20
2019-03-10T15:18:34.366Z,65.20
2019-03-10T15:21:08.029Z,65.20
2019-03-10T15:23:40.379Z,65.60
2019-03-10T15:26:10.972Z,64.50
2019-03-10T15:28:41.529Z,64.30
2019-03-10T15:31:12.155Z,64.60
2019-03-10T15:33:42.881Z,64.40
2019-03-10T15:36:20.228Z,64.30
2019-03-10T15:38:46.080Z,64.10
2019-03-10T15:41:16.778Z,64.10
2019-03-10T15:43:47.658Z,63.90
2019-03-10T15:46:18.386Z,63.70
2019-03-10T15:48:49.379Z,63.70
2019-03-10T15:51:20.197Z,63.90
2019-03-10T15:53:50.906Z,64.00
2019-03-10T15:56:21.622Z,64.10
2019-03-10T15:58:52.332Z,64.00
2019-03-10T16:01:23.079Z,63.70
2019-03-10T16:03:54.066Z,63.40
2019-03-10T16:06:25.021Z,63.30
2019-03-10T16:08:55.790Z,63.50
2019-03-10T16:11:26.425Z,64.10
2019-03-10T16:13:57.279Z,63.50
2019-03-10T16:16:27.907Z,63.60
2019-03-10T16:18:58.498Z,63.70
2019-03-10T16:21:29.347Z,63.50
2019-03-10T16:24:00.227Z,63.40
2019-03-10T16:26:30.849Z,63.60
2019-03-10T16:29:02.565Z,63.40
2019-03-10T16:31:33.332Z,63.10
2019-03-10T16:34:04.077Z,62.90
2019-03-10T16:36:34.793Z,62.70
2019-03-10T16:39:08.748Z,62.00
2019-03-10T16:41:40.166Z,61.80
2019-03-10T16:44:10.827Z,61.50
2019-03-10T16:46:41.579Z,61.20
2019-03-10T16:49:12.278Z,61.30
2019-03-10T16:51:43.073Z,61.00
2019-03-10T16:54:13.783Z,61.10
2019-03-10T16:56:44.472Z,60.30
2019-03-10T16:59:15.176Z,60.00
2019-03-10T17:01:45.875Z,59.60
2019-03-10T17:04:16.650Z,59.50
2019-03-10T17:06:47.340Z,59.40
2019-03-10T17:09:19.698Z,59.20
2019-03-10T17:11:50.386Z,59.30
2019-03-10T17:14:20.984Z,59.20
2019-03-10T17:16:51.693Z,58.70
2019-03-10T17:19:22.414Z,58.80
2019-03-10T17:21:53.112Z,59.00
2019-03-10T17:24:24.851Z,58.80
2019-03-10T17:26:58.493Z,58.90
2019-03-10T17:29:29.320Z,58.70
2019-03-10T17:31:59.969Z,58.70
2019-03-10T17:34:30.507Z,58.70
2019-03-10T17:37:01.077Z,58.50
2019-03-10T17:39:31.754Z,58.60
2019-03-10T17:42:02.786Z,58.60
2019-03-10T17:44:41.145Z,58.60
2019-03-10T17:47:06.178Z,58.40
2019-03-10T17:49:37.131Z,58.20
2019-03-10T17:52:14.385Z,58.00
2019-03-10T17:54:40.564Z,57.70
2019-03-10T17:57:11.184Z,57.50
2019-03-10T17:59:41.844Z,57.50
2019-03-10T18:02:12.499Z,57.00
2019-03-10T18:04:43.068Z,56.70
2019-03-10T18:07:13.807Z,56.80
2019-03-10T18:09:44.527Z,56.60
2019-03-10T18:12:15.205Z,56.70
2019-03-10T18:14:45.914Z,56.80
2019-03-10T18:17:16.623Z,56.80
2019-03-10T18:19:47.304Z,57.50
2019-03-10T18:22:17.944Z,56.90
2019-03-10T18:24:48.622Z,56.90
2019-03-10T18:27:19.266Z,56.70
2019-03-10T18:29:49.920Z,56.40
2019-03-10T18:32:20.571Z,56.20
2019-03-10T18:34:51.614Z,56.20
2019-03-10T18:37:22.224Z,55.80
2019-03-10T18:39:52.803Z,55.90
2019-03-10T18:42:23.503Z,55.50
2019-03-10T18:44:54.059Z,55.60
2019-03-10T18:47:24.648Z,55.50
2019-03-10T18:49:55.660Z,55.60
2019-03-10T18:52:26.555Z,55.90
2019-03-10T18:54:57.381Z,55.90
2019-03-10T18:57:29.104Z,55.90
2019-03-10T18:59:59.627Z,55.90
2019-03-10T19:02:30.238Z,55.90
2019-03-10T19:05:00.866Z,55.70
2019-03-10T19:07:31.620Z,55.70
2019-03-10T19:10:02.314Z,55.70
2019-03-10T19:12:34.180Z,55.70
2019-03-10T19:15:05.838Z,55.70
2019-03-10T19:17:36.593Z,55.80
2019-03-10T19:20:07.877Z,56.00
2019-03-10T19:22:38.633Z,56.30
2019-03-10T19:25:11.431Z,56.50
2019-03-10T19:27:42.604Z,56.80
2019-03-10T19:30:15.036Z,57.10
2019-03-10T19:32:45.825Z,57.50
2019-03-10T19:35:16.587Z,57.60
2019-03-10T19:37:47.292Z,57.90
2019-03-10T19:40:18.106Z,58.10
2019-03-10T19:42:48.860Z,58.30
2019-03-10T19:45:19.633Z,58.50
2019-03-10T19:47:50.338Z,58.70
2019-03-10T19:50:21.151Z,58.90
2019-03-10T19:52:52.356Z,58.90
2019-03-10T19:55:23.335Z,59.00
2019-03-10T19:57:55.047Z,59.00
2019-03-10T20:00:25.783Z,59.00
2019-03-10T20:02:56.639Z,59.10
2019-03-10T20:05:27.312Z,59.00
2019-03-10T20:07:57.966Z,59.00
2019-03-10T20:10:28.702Z,59.00
2019-03-10T20:12:59.407Z,59.10
2019-03-10T20:15:30.140Z,59.10
2019-03-10T20:18:00.790Z,59.10
2019-03-10T20:20:31.570Z,59.00
2019-03-10T20:23:02.215Z,59.10
2019-03-10T20:25:33.064Z,59.10
2019-03-10T20:28:03.834Z,58.80
2019-03-10T20:30:34.602Z,58.80
2019-03-10T20:33:05.361Z,59.70
2019-03-10T20:35:36.102Z,59.50
2019-03-10T20:38:06.879Z,59.70
2019-03-10T20:40:37.586Z,60.20
2019-03-10T20:43:08.213Z,60.30
2019-03-10T20:45:38.907Z,61.20
2019-03-10T20:48:09.686Z,60.70
2019-03-10T20:50:40.358Z,60.80
2019-03-10T20:53:11.019Z,61.00
2019-03-10T20:55:41.583Z,61.20
2019-03-10T20:58:12.327Z,61.30
2019-03-10T21:00:43.223Z,61.50
2019-03-10T21:03:15.250Z,61.70
2019-03-10T21:05:45.963Z,61.80
2019-03-10T21:08:17.964Z,62.10
2019-03-10T21:10:48.866Z,62.10
2019-03-10T21:13:20.935Z,62.30
2019-03-10T21:15:51.901Z,62.50
2019-03-10T21:18:22.568Z,62.70
2019-03-10T21:20:53.505Z,63.00
2019-03-10T21:23:27.487Z,62.80
2019-03-10T21:25:58.566Z,62.80
2019-03-10T21:28:29.235Z,62.80
2019-03-10T21:30:59.879Z,62.70
2019-03-10T21:33:30.974Z,62.70
2019-03-10T21:36:01.733Z,62.80
2019-03-10T21:38:32.611Z,63.10
2019-03-10T21:41:13.415Z,63.00
2019-03-10T21:43:35.628Z,63.30
2019-03-10T21:46:07.605Z,63.30
2019-03-10T21:48:38.618Z,63.30
2019-03-10T21:51:09.645Z,63.40
2019-03-10T21:53:40.290Z,63.60
2019-03-10T21:56:10.818Z,63.90
2019-03-10T21:58:42.598Z,64.20
2019-03-10T22:01:13.422Z,64.30
2019-03-10T22:03:44.108Z,64.50
2019-03-10T22:06:14.735Z,64.70
2019-03-10T22:08:45.511Z,64.70
2019-03-10T22:11:16.097Z,64.70
2019-03-10T22:13:47.154Z,64.90
2019-03-10T22:16:18.245Z,64.60
2019-03-10T22:18:49.907Z,64.70
2019-03-10T22:21:20.935Z,64.80
2019-03-10T22:23:59.387Z,64.70
2019-03-10T22:26:24.027Z,64.90
2019-03-10T22:28:55.038Z,64.70
2019-03-10T22:31:28.071Z,64.70
2019-03-10T22:33:59.105Z,64.70
2019-03-10T22:36:33.110Z,64.50
2019-03-10T22:39:04.783Z,64.30
2019-03-10T22:41:35.972Z,64.30
2019-03-10T22:44:06.502Z,64.10
2019-03-10T22:46:37.148Z,64.10
2019-03-10T22:49:11.605Z,64.00
2019-03-10T22:51:42.172Z,64.10
2019-03-10T22:54:12.844Z,64.10
2019-03-10T22:56:43.402Z,64.30
2019-03-10T22:59:13.910Z,64.20
2019-03-10T23:01:44.557Z,64.10
2019-03-10T23:04:15.303Z,64.20
2019-03-10T23:06:45.944Z,64.30
2019-03-10T23:09:16.580Z,64.30
2019-03-10T23:11:47.227Z,65.20
2019-03-10T23:14:17.809Z,64.40
2019-03-10T23:16:48.433Z,64.40
2019-03-10T23:19:19.416Z,64.30
2019-03-10T23:21:50.317Z,64.30
2019-03-10T23:24:20.857Z,64.50
2019-03-10T23:26:51.538Z,64.30
2019-03-10T23:29:22.491Z,64.30
2019-03-10T23:31:53.212Z,64.30
2019-03-10T23:34:23.765Z,64.30
2019-03-10T23:36:54.514Z,64.50
2019-03-10T23:39:25.233Z,64.40
2019-03-10T23:41:56.289Z,64.50
2019-03-10T23:44:27.001Z,64.90
2019-03-10T23:46:57.985Z,65.20
2019-03-10T23:49:28.597Z,65.50
2019-03-10T23:51:59.660Z,65.70
2019-03-10T23:54:30.367Z,66.10
2019-03-10T23:57:01.058Z,66.30
2019-03-10T23:59:31.699Z,66.60
